sensor_id;sensor_type;location;lat;lon;timestamp;temperature;humidity
26107;DHT22;13866;50.748;12.630;2024-01-10T00:01:13;-12.10;99.90
26107;DHT22;13866;50.748;12.630;2024-01-10T00:03:39;-12.00;99.90
26107;DHT22;13866;50.748;12.630;2024-01-10T00:06:05;-12.10;99.90
26107;DHT22;13866;50.748;12.630;2024-01-10T00:08:31;-12.00;99.90
26107;DHT22;13866;50.748;12.630;2024-01-10T00:10:56;-12.00;39.30
26107;DHT22;13866;50.748;12.630;2024-01-10T00:13:22;-12.10;99.90
26107;DHT22;13866;50.748;12.630;2024-01-10T00:15:48;-12.00;8.50
26107;DHT22;13866;50.748;12.630;2024-01-10T00:18:14;-12.10;99.90
26107;DHT22;13866;50.748;12.630;2024-01-10T00:20:40;-12.20;99.90
26107;DHT22;13866;50.748;12.630;2024-01-10T00:23:06;-12.20;1.00
26107;DHT22;13866;50.748;12.630;2024-01-10T00:25:34;-12.20;99.90
26107;DHT22;13866;50.748;12.630;2024-01-10T00:27:59;-12.20;99.90
26107;DHT22;13866;50.748;12.630;2024-01-10T00:30:25;-12.20;99.90
26107;DHT22;13866;50.748;12.630;2024-01-10T00:32:51;-12.10;99.90
26107;DHT22;13866;50.748;12.630;2024-01-10T00:35:16;-12.10;99.90
26107;DHT22;13866;50.748;12.630;2024-01-10T00:37:42;-12.20;56.00
26107;DHT22;13866;50.748;12.630;2024-01-10T00:40:08;-12.10;99.90
26107;DHT22;13866;50.748;12.630;2024-01-10T00:42:33;-12.10;1.00
26107;DHT22;13866;50.748;12.630;2024-01-10T00:44:59;-12.10;1.00
26107;DHT22;13866;50.748;12.630;2024-01-10T00:47:24;-12.10;1.00
26107;DHT22;13866;50.748;12.630;2024-01-10T00:49:50;-12.20;1.00
26107;DHT22;13866;50.748;12.630;2024-01-10T00:52:15;-12.20;1.00
26107;DHT22;13866;50.748;12.630;2024-01-10T00:54:41;-12.10;99.90
26107;DHT22;13866;50.748;12.630;2024-01-10T00:57:06;-12.00;1.00
26107;DHT22;13866;50.748;12.630;2024-01-10T00:59:32;-12.00;1.00
26107;DHT22;13866;50.748;12.630;2024-01-10T01:01:57;-12.00;99.90
26107;DHT22;13866;50.748;12.630;2024-01-10T01:04:23;-12.10;1.00
26107;DHT22;13866;50.748;12.630;2024-01-10T01:06:48;-12.00;99.90
26107;DHT22;13866;50.748;12.630;2024-01-10T01:09:13;-12.00;1.00
26107;DHT22;13866;50.748;12.630;2024-01-10T01:11:41;-12.00;99.90
26107;DHT22;13866;50.748;12.630;2024-01-10T01:14:06;-12.10;99.20
26107;DHT22;13866;50.748;12.630;2024-01-10T01:16:32;-12.00;1.00
26107;DHT22;13866;50.748;12.630;2024-01-10T01:18:57;-12.20;99.90
26107;DHT22;13866;50.748;12.630;2024-01-10T01:21:23;-12.20;1.00
26107;DHT22;13866;50.748;12.630;2024-01-10T01:23:48;-12.10;53.00
26107;DHT22;13866;50.748;12.630;2024-01-10T01:26:14;-12.20;99.90
26107;DHT22;13866;50.748;12.630;2024-01-10T01:28:39;-12.30;99.90
26107;DHT22;13866;50.748;12.630;2024-01-10T01:31:05;-12.20;99.90
26107;DHT22;13866;50.748;12.630;2024-01-10T01:33:30;-12.20;1.00
26107;DHT22;13866;50.748;12.630;2024-01-10T01:35:56;-12.10;99.90
26107;DHT22;13866;50.748;12.630;2024-01-10T01:38:21;-12.20;1.00
26107;DHT22;13866;50.748;12.630;2024-01-10T01:40:47;-12.20;1.00
26107;DHT22;13866;50.748;12.630;2024-01-10T01:43:20;-12.20;1.00
26107;DHT22;13866;50.748;12.630;2024-01-10T01:45:51;-12.20;1.00
26107;DHT22;13866;50.748;12.630;2024-01-10T01:48:17;-12.20;1.00
26107;DHT22;13866;50.748;12.630;2024-01-10T01:50:45;-12.20;8.30
26107;DHT22;13866;50.748;12.630;2024-01-10T01:53:12;-12.20;1.00
26107;DHT22;13866;50.748;12.630;2024-01-10T01:55:38;-12.20;99.90
26107;DHT22;13866;50.748;12.630;2024-01-10T01:58:03;-12.10;1.00
26107;DHT22;13866;50.748;12.630;2024-01-10T02:00:29;-12.20;99.90
26107;DHT22;13866;50.748;12.630;2024-01-10T02:02:57;-12.20;1.00
26107;DHT22;13866;50.748;12.630;2024-01-10T02:05:24;-12.30;99.90
26107;DHT22;13866;50.748;12.630;2024-01-10T02:07:50;-12.30;1.00
26107;DHT22;13866;50.748;12.630;2024-01-10T02:10:16;-12.40;99.90
26107;DHT22;13866;50.748;12.630;2024-01-10T02:12:41;-12.30;1.00
26107;DHT22;13866;50.748;12.630;2024-01-10T02:15:07;-12.30;1.00
26107;DHT22;13866;50.748;12.630;2024-01-10T02:17:32;-12.30;1.00
26107;DHT22;13866;50.748;12.630;2024-01-10T02:20:14;-12.30;99.90
26107;DHT22;13866;50.748;12.630;2024-01-10T02:22:43;-12.30;99.90
26107;DHT22;13866;50.748;12.630;2024-01-10T02:25:10;-12.30;55.30
26107;DHT22;13866;50.748;12.630;2024-01-10T02:27:37;-12.40;99.90
26107;DHT22;13866;50.748;12.630;2024-01-10T02:30:04;-12.50;99.90
26107;DHT22;13866;50.748;12.630;2024-01-10T02:32:30;-12.40;1.00
26107;DHT22;13866;50.748;12.630;2024-01-10T02:34:55;-12.50;1.00
26107;DHT22;13866;50.748;12.630;2024-01-10T02:37:21;-12.50;99.90
26107;DHT22;13866;50.748;12.630;2024-01-10T02:39:46;-12.50;1.00
26107;DHT22;13866;50.748;12.630;2024-01-10T02:42:12;-12.40;1.00
26107;DHT22;13866;50.748;12.630;2024-01-10T02:44:37;-12.40;99.90
26107;DHT22;13866;50.748;12.630;2024-01-10T02:47:03;-12.40;92.10
26107;DHT22;13866;50.748;12.630;2024-01-10T02:49:29;-12.50;11.30
26107;DHT22;13866;50.748;12.630;2024-01-10T02:51:54;-12.50;1.00
26107;DHT22;13866;50.748;12.630;2024-01-10T02:54:19;-12.40;99.40
26107;DHT22;13866;50.748;12.630;2024-01-10T02:56:45;-12.50;99.90
26107;DHT22;13866;50.748;12.630;2024-01-10T02:59:11;-12.40;1.00
26107;DHT22;13866;50.748;12.630;2024-01-10T03:01:36;-12.30;99.90
26107;DHT22;13866;50.748;12.630;2024-01-10T03:04:02;-12.40;99.90
26107;DHT22;13866;50.748;12.630;2024-01-10T03:06:27;-12.40;17.90
26107;DHT22;13866;50.748;12.630;2024-01-10T03:08:55;-12.50;99.90
26107;DHT22;13866;50.748;12.630;2024-01-10T03:11:20;-12.50;99.90
26107;DHT22;13866;50.748;12.630;2024-01-10T03:13:47;-12.50;1.00
26107;DHT22;13866;50.748;12.630;2024-01-10T03:16:13;-12.50;1.00
26107;DHT22;13866;50.748;12.630;2024-01-10T03:18:38;-12.40;1.00
26107;DHT22;13866;50.748;12.630;2024-01-10T03:21:04;-12.30;99.90
26107;DHT22;13866;50.748;12.630;2024-01-10T03:23:30;-12.30;99.90
26107;DHT22;13866;50.748;12.630;2024-01-10T03:25:58;-12.30;16.80
26107;DHT22;13866;50.748;12.630;2024-01-10T03:28:24;-12.40;1.00
26107;DHT22;13866;50.748;12.630;2024-01-10T03:30:49;-12.40;1.00
26107;DHT22;13866;50.748;12.630;2024-01-10T03:33:15;-12.40;99.90
26107;DHT22;13866;50.748;12.630;2024-01-10T03:35:41;-12.40;99.90
26107;DHT22;13866;50.748;12.630;2024-01-10T03:38:07;-12.30;1.00
26107;DHT22;13866;50.748;12.630;2024-01-10T03:40:32;-12.30;1.00
26107;DHT22;13866;50.748;12.630;2024-01-10T03:42:58;-12.40;99.90
26107;DHT22;13866;50.748;12.630;2024-01-10T03:45:23;-12.40;99.90
26107;DHT22;13866;50.748;12.630;2024-01-10T03:47:49;-12.30;1.00
26107;DHT22;13866;50.748;12.630;2024-01-10T03:50:17;-12.40;1.00
26107;DHT22;13866;50.748;12.630;2024-01-10T03:52:44;-12.40;99.90
26107;DHT22;13866;50.748;12.630;2024-01-10T03:55:09;-12.40;99.90
26107;DHT22;13866;50.748;12.630;2024-01-10T03:57:35;-12.40;1.00
26107;DHT22;13866;50.748;12.630;2024-01-10T04:00:00;-12.40;99.90
26107;DHT22;13866;50.748;12.630;2024-01-10T04:02:26;-12.30;1.00
26107;DHT22;13866;50.748;12.630;2024-01-10T04:04:53;-12.20;1.00
26107;DHT22;13866;50.748;12.630;2024-01-10T04:07:19;-12.20;99.90
26107;DHT22;13866;50.748;12.630;2024-01-10T04:09:44;-12.20;99.90
26107;DHT22;13866;50.748;12.630;2024-01-10T04:12:10;-12.20;1.00
26107;DHT22;13866;50.748;12.630;2024-01-10T04:14:35;-12.20;1.00
26107;DHT22;13866;50.748;12.630;2024-01-10T04:17:01;-12.30;1.00
26107;DHT22;13866;50.748;12.630;2024-01-10T04:19:28;-12.30;1.00
26107;DHT22;13866;50.748;12.630;2024-01-10T04:21:54;-12.30;1.00
26107;DHT22;13866;50.748;12.630;2024-01-10T04:24:19;-12.30;1.00
26107;DHT22;13866;50.748;12.630;2024-01-10T04:26:44;-12.30;1.00
26107;DHT22;13866;50.748;12.630;2024-01-10T04:29:10;-12.30;1.00
26107;DHT22;13866;50.748;12.630;2024-01-10T04:31:36;-12.40;99.90
26107;DHT22;13866;50.748;12.630;2024-01-10T04:34:02;-12.40;1.00
26107;DHT22;13866;50.748;12.630;2024-01-10T04:36:27;-12.40;1.00
26107;DHT22;13866;50.748;12.630;2024-01-10T04:38:53;-12.30;1.00
26107;DHT22;13866;50.748;12.630;2024-01-10T04:41:18;-12.30;1.00
26107;DHT22;13866;50.748;12.630;2024-01-10T04:43:44;-12.30;1.00
26107;DHT22;13866;50.748;12.630;2024-01-10T04:46:09;-12.30;1.00
26107;DHT22;13866;50.748;12.630;2024-01-10T04:48:36;-12.30;99.90
26107;DHT22;13866;50.748;12.630;2024-01-10T04:51:02;-12.30;3.80
26107;DHT22;13866;50.748;12.630;2024-01-10T04:53:27;-12.30;99.90
26107;DHT22;13866;50.748;12.630;2024-01-10T04:55:52;-12.20;99.90
26107;DHT22;13866;50.748;12.630;2024-01-10T04:58:18;-12.30;99.90
26107;DHT22;13866;50.748;12.630;2024-01-10T05:00:43;-12.30;99.90
26107;DHT22;13866;50.748;12.630;2024-01-10T05:03:09;-12.30;99.90
26107;DHT22;13866;50.748;12.630;2024-01-10T05:05:34;-12.30;1.00
26107;DHT22;13866;50.748;12.630;2024-01-10T05:08:00;-12.30;99.90
26107;DHT22;13866;50.748;12.630;2024-01-10T05:10:27;-12.30;1.00
26107;DHT22;13866;50.748;12.630;2024-01-10T05:12:52;-12.30;99.90
26107;DHT22;13866;50.748;12.630;2024-01-10T05:15:18;-12.30;99.90
26107;DHT22;13866;50.748;12.630;2024-01-10T05:17:44;-12.30;1.00
26107;DHT22;13866;50.748;12.630;2024-01-10T05:20:10;-12.30;1.00
26107;DHT22;13866;50.748;12.630;2024-01-10T05:22:35;-12.30;99.90
26107;DHT22;13866;50.748;12.630;2024-01-10T05:25:01;-12.30;1.00
26107;DHT22;13866;50.748;12.630;2024-01-10T05:27:27;-12.30;99.90
26107;DHT22;13866;50.748;12.630;2024-01-10T05:29:52;-12.30;1.00
26107;DHT22;13866;50.748;12.630;2024-01-10T05:32:18;-12.30;99.90
26107;DHT22;13866;50.748;12.630;2024-01-10T05:34:44;-12.30;99.90
26107;DHT22;13866;50.748;12.630;2024-01-10T05:37:10;-12.30;99.90
26107;DHT22;13866;50.748;12.630;2024-01-10T05:39:35;-12.30;99.90
26107;DHT22;13866;50.748;12.630;2024-01-10T05:42:01;-12.30;32.90
26107;DHT22;13866;50.748;12.630;2024-01-10T05:44:28;-12.40;99.90
26107;DHT22;13866;50.748;12.630;2024-01-10T05:46:53;-12.40;1.00
26107;DHT22;13866;50.748;12.630;2024-01-10T05:49:19;-12.50;1.00
26107;DHT22;13866;50.748;12.630;2024-01-10T05:51:47;-12.50;1.00
26107;DHT22;13866;50.748;12.630;2024-01-10T05:54:12;-12.50;1.00
26107;DHT22;13866;50.748;12.630;2024-01-10T05:56:38;-12.50;99.90
26107;DHT22;13866;50.748;12.630;2024-01-10T05:59:03;-12.50;99.90
26107;DHT22;13866;50.748;12.630;2024-01-10T06:01:29;-12.50;1.00
26107;DHT22;13866;50.748;12.630;2024-01-10T06:03:54;-12.40;1.00
26107;DHT22;13866;50.748;12.630;2024-01-10T06:06:20;-12.40;26.10
26107;DHT22;13866;50.748;12.630;2024-01-10T06:08:45;-12.40;99.90
26107;DHT22;13866;50.748;12.630;2024-01-10T06:11:11;-12.40;99.90
26107;DHT22;13866;50.748;12.630;2024-01-10T06:13:36;-12.30;1.00
26107;DHT22;13866;50.748;12.630;2024-01-10T06:16:03;-12.30;1.00
26107;DHT22;13866;50.748;12.630;2024-01-10T06:18:29;-12.30;1.00
26107;DHT22;13866;50.748;12.630;2024-01-10T06:20:54;-12.30;1.00
26107;DHT22;13866;50.748;12.630;2024-01-10T06:23:20;-12.30;1.00
26107;DHT22;13866;50.748;12.630;2024-01-10T06:25:45;-12.30;99.90
26107;DHT22;13866;50.748;12.630;2024-01-10T06:28:11;-12.30;18.70
26107;DHT22;13866;50.748;12.630;2024-01-10T06:30:36;-12.30;99.90
26107;DHT22;13866;50.748;12.630;2024-01-10T06:33:02;-12.30;33.10
26107;DHT22;13866;50.748;12.630;2024-01-10T06:35:27;-12.30;99.90
26107;DHT22;13866;50.748;12.630;2024-01-10T06:37:53;-12.30;99.90
26107;DHT22;13866;50.748;12.630;2024-01-10T06:40:18;-12.30;99.90
26107;DHT22;13866;50.748;12.630;2024-01-10T06:42:46;-12.30;99.90
26107;DHT22;13866;50.748;12.630;2024-01-10T06:45:12;-12.40;1.00
26107;DHT22;13866;50.748;12.630;2024-01-10T06:47:38;-12.40;1.00
26107;DHT22;13866;50.748;12.630;2024-01-10T06:50:04;-12.40;99.90
26107;DHT22;13866;50.748;12.630;2024-01-10T06:52:31;-12.40;99.90
26107;DHT22;13866;50.748;12.630;2024-01-10T06:54:56;-12.40;99.90
26107;DHT22;13866;50.748;12.630;2024-01-10T06:57:22;-12.40;99.90
26107;DHT22;13866;50.748;12.630;2024-01-10T06:59:50;-12.40;99.90
26107;DHT22;13866;50.748;12.630;2024-01-10T07:02:15;-12.40;95.30
26107;DHT22;13866;50.748;12.630;2024-01-10T07:04:42;-12.40;99.90
26107;DHT22;13866;50.748;12.630;2024-01-10T07:07:08;-12.40;99.90
26107;DHT22;13866;50.748;12.630;2024-01-10T07:09:33;-12.40;99.90
26107;DHT22;13866;50.748;12.630;2024-01-10T07:11:59;-12.40;1.00
26107;DHT22;13866;50.748;12.630;2024-01-10T07:14:25;-12.40;1.00
26107;DHT22;13866;50.748;12.630;2024-01-10T07:16:50;-12.40;67.90
26107;DHT22;13866;50.748;12.630;2024-01-10T07:19:17;-12.30;99.90
26107;DHT22;13866;50.748;12.630;2024-01-10T07:21:43;-12.30;99.90
26107;DHT22;13866;50.748;12.630;2024-01-10T07:24:09;-12.30;16.40
26107;DHT22;13866;50.748;12.630;2024-01-10T07:26:36;-12.20;78.50
26107;DHT22;13866;50.748;12.630;2024-01-10T07:29:02;-12.30;99.90
26107;DHT22;13866;50.748;12.630;2024-01-10T07:31:28;-12.30;99.90
26107;DHT22;13866;50.748;12.630;2024-01-10T07:33:57;-12.30;84.80
26107;DHT22;13866;50.748;12.630;2024-01-10T07:36:26;-12.30;76.00
26107;DHT22;13866;50.748;12.630;2024-01-10T07:38:56;-12.20;74.90
26107;DHT22;13866;50.748;12.630;2024-01-10T07:41:22;-12.20;77.70
26107;DHT22;13866;50.748;12.630;2024-01-10T07:43:48;-12.20;33.50
26107;DHT22;13866;50.748;12.630;2024-01-10T07:46:13;-12.20;99.90
26107;DHT22;13866;50.748;12.630;2024-01-10T07:48:39;-12.10;99.90
26107;DHT22;13866;50.748;12.630;2024-01-10T07:51:04;-12.10;99.90
26107;DHT22;13866;50.748;12.630;2024-01-10T07:53:30;-12.20;1.00
26107;DHT22;13866;50.748;12.630;2024-01-10T07:55:56;-12.20;99.90
26107;DHT22;13866;50.748;12.630;2024-01-10T07:58:22;-12.10;99.90
26107;DHT22;13866;50.748;12.630;2024-01-10T08:00:47;-12.10;1.00
26107;DHT22;13866;50.748;12.630;2024-01-10T08:03:13;-11.70;1.00
26107;DHT22;13866;50.748;12.630;2024-01-10T08:05:38;-11.50;1.00
26107;DHT22;13866;50.748;12.630;2024-01-10T08:08:04;-11.30;1.00
26107;DHT22;13866;50.748;12.630;2024-01-10T08:10:29;-11.30;1.00
26107;DHT22;13866;50.748;12.630;2024-01-10T08:12:55;-11.40;99.90
26107;DHT22;13866;50.748;12.630;2024-01-10T08:15:22;-11.30;99.90
26107;DHT22;13866;50.748;12.630;2024-01-10T08:17:48;-11.30;99.90
26107;DHT22;13866;50.748;12.630;2024-01-10T08:20:13;-11.30;99.90
26107;DHT22;13866;50.748;12.630;2024-01-10T08:22:40;-11.30;99.90
26107;DHT22;13866;50.748;12.630;2024-01-10T08:25:06;-11.30;99.90
26107;DHT22;13866;50.748;12.630;2024-01-10T08:27:32;-11.20;99.90
26107;DHT22;13866;50.748;12.630;2024-01-10T08:29:59;-11.20;1.00
26107;DHT22;13866;50.748;12.630;2024-01-10T08:32:24;-11.20;63.20
26107;DHT22;13866;50.748;12.630;2024-01-10T08:34:50;-11.10;1.00
26107;DHT22;13866;50.748;12.630;2024-01-10T08:37:17;-11.10;99.90
26107;DHT22;13866;50.748;12.630;2024-01-10T08:39:43;-10.90;1.00
26107;DHT22;13866;50.748;12.630;2024-01-10T08:42:09;-10.70;99.90
26107;DHT22;13866;50.748;12.630;2024-01-10T08:44:35;-10.60;1.00
26107;DHT22;13866;50.748;12.630;2024-01-10T08:47:00;-10.40;1.00
26107;DHT22;13866;50.748;12.630;2024-01-10T08:49:26;-10.40;99.90
26107;DHT22;13866;50.748;12.630;2024-01-10T08:51:52;-10.40;99.90
26107;DHT22;13866;50.748;12.630;2024-01-10T08:54:18;-10.10;62.60
26107;DHT22;13866;50.748;12.630;2024-01-10T08:56:45;-9.90;1.00
26107;DHT22;13866;50.748;12.630;2024-01-10T08:59:11;-9.60;99.90
26107;DHT22;13866;50.748;12.630;2024-01-10T09:01:38;-9.30;1.00
26107;DHT22;13866;50.748;12.630;2024-01-10T09:04:07;-9.10;1.00
26107;DHT22;13866;50.748;12.630;2024-01-10T09:06:33;-8.80;99.90
26107;DHT22;13866;50.748;12.630;2024-01-10T09:08:59;-8.60;96.10
26107;DHT22;13866;50.748;12.630;2024-01-10T09:11:25;-8.50;86.30
26107;DHT22;13866;50.748;12.630;2024-01-10T09:13:51;-8.40;1.00
26107;DHT22;13866;50.748;12.630;2024-01-10T09:16:17;-8.30;99.90
26107;DHT22;13866;50.748;12.630;2024-01-10T09:18:44;-8.10;99.90
26107;DHT22;13866;50.748;12.630;2024-01-10T09:21:09;-8.20;99.90
26107;DHT22;13866;50.748;12.630;2024-01-10T09:23:35;-8.00;1.00
26107;DHT22;13866;50.748;12.630;2024-01-10T09:26:00;-7.60;1.00
26107;DHT22;13866;50.748;12.630;2024-01-10T09:28:26;-7.30;99.90
26107;DHT22;13866;50.748;12.630;2024-01-10T09:30:51;-6.90;99.90
26107;DHT22;13866;50.748;12.630;2024-01-10T09:33:17;-6.70;1.00
26107;DHT22;13866;50.748;12.630;2024-01-10T09:35:42;-6.50;1.00
26107;DHT22;13866;50.748;12.630;2024-01-10T09:38:08;-6.60;1.00
26107;DHT22;13866;50.748;12.630;2024-01-10T09:40:34;-6.50;1.00
26107;DHT22;13866;50.748;12.630;2024-01-10T09:42:59;-6.30;1.00
26107;DHT22;13866;50.748;12.630;2024-01-10T09:45:26;-6.20;1.00
26107;DHT22;13866;50.748;12.630;2024-01-10T09:47:56;-6.40;1.00
26107;DHT22;13866;50.748;12.630;2024-01-10T09:50:22;-6.40;1.00
26107;DHT22;13866;50.748;12.630;2024-01-10T09:52:53;-6.30;1.00
26107;DHT22;13866;50.748;12.630;2024-01-10T09:55:20;-6.30;1.00
26107;DHT22;13866;50.748;12.630;2024-01-10T09:57:46;-6.30;1.00
26107;DHT22;13866;50.748;12.630;2024-01-10T10:00:13;-6.50;1.00
26107;DHT22;13866;50.748;12.630;2024-01-10T10:02:41;-6.60;1.00
26107;DHT22;13866;50.748;12.630;2024-01-10T10:05:15;-6.50;1.00
26107;DHT22;13866;50.748;12.630;2024-01-10T10:07:46;-6.50;1.00
26107;DHT22;13866;50.748;12.630;2024-01-10T10:10:11;-6.50;1.00
26107;DHT22;13866;50.748;12.630;2024-01-10T10:12:52;-6.50;1.00
26107;DHT22;13866;50.748;12.630;2024-01-10T10:15:20;-6.40;1.00
26107;DHT22;13866;50.748;12.630;2024-01-10T10:17:48;-6.20;1.00
26107;DHT22;13866;50.748;12.630;2024-01-10T10:20:26;-6.20;99.90
26107;DHT22;13866;50.748;12.630;2024-01-10T10:25:32;-6.00;1.00
26107;DHT22;13866;50.748;12.630;2024-01-10T10:27:59;-5.90;1.00
26107;DHT22;13866;50.748;12.630;2024-01-10T10:30:25;-5.90;1.00
26107;DHT22;13866;50.748;12.630;2024-01-10T10:32:51;-5.90;1.00
26107;DHT22;13866;50.748;12.630;2024-01-10T10:35:18;-5.80;1.00
26107;DHT22;13866;50.748;12.630;2024-01-10T10:37:45;-5.90;1.00
26107;DHT22;13866;50.748;12.630;2024-01-10T10:40:11;-5.90;1.00
26107;DHT22;13866;50.748;12.630;2024-01-10T10:42:40;-6.00;1.00
26107;DHT22;13866;50.748;12.630;2024-01-10T10:45:09;-5.90;1.00
26107;DHT22;13866;50.748;12.630;2024-01-10T10:47:38;-5.90;1.00
26107;DHT22;13866;50.748;12.630;2024-01-10T10:50:14;-5.90;1.00
26107;DHT22;13866;50.748;12.630;2024-01-10T10:52:45;-5.90;1.00
26107;DHT22;13866;50.748;12.630;2024-01-10T10:55:14;-5.80;1.00
26107;DHT22;13866;50.748;12.630;2024-01-10T10:57:45;-5.70;1.00
26107;DHT22;13866;50.748;12.630;2024-01-10T11:00:15;-5.70;1.00
26107;DHT22;13866;50.748;12.630;2024-01-10T11:02:41;-5.60;1.00
26107;DHT22;13866;50.748;12.630;2024-01-10T11:05:09;-5.60;1.00
26107;DHT22;13866;50.748;12.630;2024-01-10T11:07:41;-5.50;1.00
26107;DHT22;13866;50.748;12.630;2024-01-10T11:10:12;-5.50;27.70
26107;DHT22;13866;50.748;12.630;2024-01-10T11:18:59;-5.40;99.90
26107;DHT22;13866;50.748;12.630;2024-01-10T11:21:50;-5.30;99.90
26107;DHT22;13866;50.748;12.630;2024-01-10T11:24:19;-5.30;99.90
26107;DHT22;13866;50.748;12.630;2024-01-10T11:26:45;-5.20;99.90
26107;DHT22;13866;50.748;12.630;2024-01-10T11:29:11;-5.20;99.90
26107;DHT22;13866;50.748;12.630;2024-01-10T11:31:38;-5.20;99.90
26107;DHT22;13866;50.748;12.630;2024-01-10T11:34:04;-5.10;99.90
26107;DHT22;13866;50.748;12.630;2024-01-10T11:36:29;-5.10;99.90
26107;DHT22;13866;50.748;12.630;2024-01-10T11:38:58;-5.10;32.10
26107;DHT22;13866;50.748;12.630;2024-01-10T11:41:36;-5.00;5.90
26107;DHT22;13866;50.748;12.630;2024-01-10T11:46:40;-4.90;75.00
26107;DHT22;13866;50.748;12.630;2024-01-10T11:49:09;-4.80;99.90
26107;DHT22;13866;50.748;12.630;2024-01-10T11:51:38;-4.80;99.90
26107;DHT22;13866;50.748;12.630;2024-01-10T11:54:04;-4.80;99.90
26107;DHT22;13866;50.748;12.630;2024-01-10T11:56:40;-4.80;88.70
26107;DHT22;13866;50.748;12.630;2024-01-10T11:59:10;-4.70;99.90
26107;DHT22;13866;50.748;12.630;2024-01-10T12:01:37;-4.60;99.90
26107;DHT22;13866;50.748;12.630;2024-01-10T12:04:03;-4.60;99.90
26107;DHT22;13866;50.748;12.630;2024-01-10T12:06:36;-4.60;99.90
26107;DHT22;13866;50.748;12.630;2024-01-10T12:09:02;-4.50;99.90
26107;DHT22;13866;50.748;12.630;2024-01-10T12:11:30;-4.40;99.90
26107;DHT22;13866;50.748;12.630;2024-01-10T12:13:55;-4.40;1.00
26107;DHT22;13866;50.748;12.630;2024-01-10T12:16:23;-4.30;99.90
26107;DHT22;13866;50.748;12.630;2024-01-10T12:18:48;-4.20;99.90
26107;DHT22;13866;50.748;12.630;2024-01-10T12:21:14;-4.10;99.90
26107;DHT22;13866;50.748;12.630;2024-01-10T12:23:40;-4.00;99.90
26107;DHT22;13866;50.748;12.630;2024-01-10T12:26:11;-4.00;99.90
26107;DHT22;13866;50.748;12.630;2024-01-10T12:28:40;-3.90;99.90
26107;DHT22;13866;50.748;12.630;2024-01-10T12:31:05;-3.90;69.40
26107;DHT22;13866;50.748;12.630;2024-01-10T12:33:34;-3.80;63.40
26107;DHT22;13866;50.748;12.630;2024-01-10T12:38:29;-3.70;24.50
26107;DHT22;13866;50.748;12.630;2024-01-10T12:40:57;-3.60;1.00
26107;DHT22;13866;50.748;12.630;2024-01-10T12:43:22;-3.60;1.00
26107;DHT22;13866;50.748;12.630;2024-01-10T12:45:48;-3.60;1.00
26107;DHT22;13866;50.748;12.630;2024-01-10T12:48:13;-3.60;1.00
26107;DHT22;13866;50.748;12.630;2024-01-10T12:50:42;-3.50;11.50
26107;DHT22;13866;50.748;12.630;2024-01-10T12:53:09;-3.50;1.00
26107;DHT22;13866;50.748;12.630;2024-01-10T12:55:35;-3.50;1.50
26107;DHT22;13866;50.748;12.630;2024-01-10T12:58:00;-3.50;1.00
26107;DHT22;13866;50.748;12.630;2024-01-10T13:00:29;-3.50;16.30
26107;DHT22;13866;50.748;12.630;2024-01-10T13:02:55;-3.60;56.30
26107;DHT22;13866;50.748;12.630;2024-01-10T13:05:20;-3.60;55.50
26107;DHT22;13866;50.748;12.630;2024-01-10T13:07:46;-3.60;26.60
26107;DHT22;13866;50.748;12.630;2024-01-10T13:10:12;-3.50;99.90
26107;DHT22;13866;50.748;12.630;2024-01-10T13:12:37;-3.50;98.00
26107;DHT22;13866;50.748;12.630;2024-01-10T13:15:03;-3.50;99.90
26107;DHT22;13866;50.748;12.630;2024-01-10T13:17:30;-3.40;99.90
26107;DHT22;13866;50.748;12.630;2024-01-10T13:19:55;-3.40;99.90
26107;DHT22;13866;50.748;12.630;2024-01-10T13:22:21;-3.30;53.80
26107;DHT22;13866;50.748;12.630;2024-01-10T13:24:46;-3.30;99.90
26107;DHT22;13866;50.748;12.630;2024-01-10T13:27:12;-3.30;97.50
26107;DHT22;13866;50.748;12.630;2024-01-10T13:29:38;-3.20;77.20
26107;DHT22;13866;50.748;12.630;2024-01-10T13:32:04;-3.20;40.80
26107;DHT22;13866;50.748;12.630;2024-01-10T13:34:30;-3.10;42.40
26107;DHT22;13866;50.748;12.630;2024-01-10T13:36:55;-3.20;21.20
26107;DHT22;13866;50.748;12.630;2024-01-10T13:39:21;-3.10;23.60
26107;DHT22;13866;50.748;12.630;2024-01-10T13:41:46;-3.10;64.60
26107;DHT22;13866;50.748;12.630;2024-01-10T13:44:12;-3.10;73.40
26107;DHT22;13866;50.748;12.630;2024-01-10T13:46:37;-3.10;96.10
26107;DHT22;13866;50.748;12.630;2024-01-10T13:49:03;-3.00;18.40
26107;DHT22;13866;50.748;12.630;2024-01-10T13:51:28;-3.00;40.90
26107;DHT22;13866;50.748;12.630;2024-01-10T13:53:54;-3.00;82.90
26107;DHT22;13866;50.748;12.630;2024-01-10T13:56:19;-3.00;27.20
26107;DHT22;13866;50.748;12.630;2024-01-10T13:58:48;-3.00;27.60
26107;DHT22;13866;50.748;12.630;2024-01-10T14:01:13;-3.00;23.30
26107;DHT22;13866;50.748;12.630;2024-01-10T14:03:39;-3.00;26.60
26107;DHT22;13866;50.748;12.630;2024-01-10T14:06:05;-3.00;29.30
26107;DHT22;13866;50.748;12.630;2024-01-10T14:08:31;-3.00;37.40
26107;DHT22;13866;50.748;12.630;2024-01-10T14:10:56;-3.00;73.00
26107;DHT22;13866;50.748;12.630;2024-01-10T14:13:22;-3.10;47.10
26107;DHT22;13866;50.748;12.630;2024-01-10T14:15:48;-3.10;97.70
26107;DHT22;13866;50.748;12.630;2024-01-10T14:18:14;-3.10;99.90
26107;DHT22;13866;50.748;12.630;2024-01-10T14:20:39;-3.20;99.90
26107;DHT22;13866;50.748;12.630;2024-01-10T14:23:05;-3.20;99.90
26107;DHT22;13866;50.748;12.630;2024-01-10T14:25:31;-3.20;99.90
26107;DHT22;13866;50.748;12.630;2024-01-10T14:27:57;-3.20;99.90
26107;DHT22;13866;50.748;12.630;2024-01-10T14:30:24;-3.20;99.90
26107;DHT22;13866;50.748;12.630;2024-01-10T14:32:50;-3.30;99.90
26107;DHT22;13866;50.748;12.630;2024-01-10T14:35:16;-3.20;99.90
26107;DHT22;13866;50.748;12.630;2024-01-10T14:37:41;-3.30;99.90
26107;DHT22;13866;50.748;12.630;2024-01-10T14:40:07;-3.30;99.90
26107;DHT22;13866;50.748;12.630;2024-01-10T14:42:33;-3.40;99.90
26107;DHT22;13866;50.748;12.630;2024-01-10T14:45:02;-3.40;99.90
26107;DHT22;13866;50.748;12.630;2024-01-10T14:47:29;-3.40;99.90
26107;DHT22;13866;50.748;12.630;2024-01-10T14:49:54;-3.50;99.90
26107;DHT22;13866;50.748;12.630;2024-01-10T14:52:23;-3.50;99.90
26107;DHT22;13866;50.748;12.630;2024-01-10T14:54:49;-3.60;1.00
26107;DHT22;13866;50.748;12.630;2024-01-10T14:57:15;-3.60;1.00
26107;DHT22;13866;50.748;12.630;2024-01-10T14:59:41;-3.70;1.00
26107;DHT22;13866;50.748;12.630;2024-01-10T15:02:07;-3.70;1.00
26107;DHT22;13866;50.748;12.630;2024-01-10T15:04:37;-3.80;1.00
26107;DHT22;13866;50.748;12.630;2024-01-10T15:07:03;-3.80;1.00
26107;DHT22;13866;50.748;12.630;2024-01-10T15:09:28;-3.80;19.90
26107;DHT22;13866;50.748;12.630;2024-01-10T15:11:54;-3.90;1.00
26107;DHT22;13866;50.748;12.630;2024-01-10T15:14:20;-3.90;99.90
26107;DHT22;13866;50.748;12.630;2024-01-10T15:16:47;-3.90;1.00
26107;DHT22;13866;50.748;12.630;2024-01-10T15:19:13;-3.90;23.20
26107;DHT22;13866;50.748;12.630;2024-01-10T15:21:39;-3.90;1.00